Time;durP1;ratioP1;P1;durP2;ratioP2;P2;SDS_P1;SDS_P2;PMS_P1;PMS_P2;Temp;Humidity;BMP_temperature;BMP_pressure;BME280_temperature;BME280_humidity;BME280_pressure;Samples;Min_cycle;Max_cycle;Signal;HPM_P1;HPM_P2
2021/08/28 00:00:32;;;;;;;;;;;;;;;;;;2077549;28;4034;-67
2021/08/28 00:01:32;;;;;;;;;;;;;;;;;;2076833;28;3998;-67
2021/08/28 00:02:33;;;;;;;;;;;;;;;;;;2076966;28;3856;-68
2021/08/28 00:03:33;;;;;;;;;;;;;;;;;;2078762;28;3943;-67
2021/08/28 00:04:35;;;;;;;;;;;;;;;;;;2076879;28;4056;-67
2021/08/28 00:05:36;;;;;;;;;;;;;;;;;;2080961;28;1479;-68
2021/08/28 00:06:36;;;;;;;;;;;;;;;;;;2077199;28;3735;-69
2021/08/28 00:07:37;;;;;;;;;;;;;;;;;;2078331;28;4019;-68
2021/08/28 00:08:38;;;;;;;;;;;;;;;;;;2078509;28;2674;-67
2021/08/28 00:09:39;;;;;;;;;;;;;;;;;;2069292;28;3593;-68
2021/08/28 00:10:40;;;;;;;;;;;;;;;;;;2077694;28;3972;-67
2021/08/28 00:11:41;;;;;;;;;;;;;;;;;;2077752;28;1946;-68
2021/08/28 00:12:41;;;;;;;;;;;;;;;;;;2081446;28;2639;-69
2021/08/28 00:13:43;;;;;;;;;;;;;;;;;;2080016;28;3700;-68
2021/08/28 00:14:43;;;;;;;;;;;;;;;;;;2080566;28;3935;-67
2021/08/28 00:15:44;;;;;;;;;;;;;;;;;;2079090;28;4031;-68
2021/08/28 00:16:44;;;;;;;;;;;;;;;;;;2078577;28;2196;-68
2021/08/28 00:17:46;;;;;;;;;;;;;;;;;;2075852;28;4186;-69
2021/08/28 00:18:46;;;;;;;;;;;;;;;;;;2080751;28;3799;-66
2021/08/28 00:21:01;;;;;;;;;;;;;;;;;;2080423;27;3848;-67
2021/08/28 00:22:01;;;;;;;;;;;;;;;;;;2096924;28;3951;-68
2021/08/28 00:23:03;;;;;;;;;;;;;;;;;;2090066;28;4120;-67
2021/08/28 00:24:03;;;;;;;;;;;;;;;;;;2096014;28;3259;-67
2021/08/28 00:25:04;;;;;;;;;;;;;;;;;;2098406;28;1408;-67
2021/08/28 00:26:04;;;;;;;;;;;;;;;;;;2095832;28;3817;-68
2021/08/28 00:27:05;;;;;;;;;;;;;;;;;;2097973;28;4004;-69
2021/08/28 00:28:05;;;;;;;;;;;;;;;;;;2093517;28;1481;-68
2021/08/28 00:29:06;;;;;;;;;;;;;;;;;;2097890;28;3973;-68
2021/08/28 00:30:06;;;;;;;;;;;;;;;;;;2095775;28;3909;-67
2021/08/28 00:31:08;;;;;;;;;;;;;;;;;;2096474;27;4071;-67
2021/08/28 00:32:08;;;;;;;;;;;;;;;;;;2097344;28;3926;-67
2021/08/28 00:33:09;;;;;;;;;;;;;;;;;;2095475;28;3974;-68
2021/08/28 00:34:09;;;;;;;;;;;;;;;;;;2098147;27;3926;-67
2021/08/28 00:35:11;;;;;;;;;;;;;;;;;;2095299;28;4353;-69
2021/08/28 00:36:11;;;;;;;;;;;;;;;;;;2095197;28;4288;-69
2021/08/28 00:37:12;;;;;;;;;;;;;;;;;;2097907;28;4021;-69
2021/08/28 00:38:12;;;;;;;;;;;;;;;;;;2095710;28;3375;-68
2021/08/28 00:39:14;;;;;;;;;;;;;;;;;;2095954;28;2104;-67
2021/08/28 00:40:14;;;;;;;;;;;;;;;;;;2097227;28;3403;-67
2021/08/28 00:41:16;;;;;;;;;;;;;;;;;;2090531;27;3727;-67
2021/08/28 00:42:16;;;;;;;;;;;;;;;;;;2094520;27;3229;-67
2021/08/28 00:43:17;;;;;;;;;;;;;;;;;;2094612;27;4218;-67
2021/08/28 00:44:18;;;;;;;;;;;;;;;;;;2096719;28;4809;-67
2021/08/28 00:45:19;;;;;;;;;;;;;;;;;;2097109;28;2178;-67
2021/08/28 00:46:19;;;;;;;;;;;;;;;;;;2095159;28;3564;-69
2021/08/28 00:47:20;;;;;;;;;;;;;;;;;;2096776;28;5453;-69
2021/08/28 00:48:20;;;;;;;;;;;;;;;;;;2097888;28;5170;-67
2021/08/28 00:49:21;;;;;;;;;;;;;;;;;;2098491;27;4623;-68
2021/08/28 00:50:30;;;;;;;;;;;;;;;;;;2090645;28;4107;-69
2021/08/28 00:51:31;;;;;;;;;;;;;;;;;;2086726;28;2197;-68
2021/08/28 00:52:31;;;;;;;;;;;;;;;;;;2097235;28;4504;-67
2021/08/28 00:53:33;;;;;;;;;;;;;;;;;;2093462;28;4676;-67
2021/08/28 00:54:33;;;;;;;;;;;;;;;;;;2096698;28;4684;-67
2021/08/28 00:55:35;;;;;;;;;;;;;;;;;;2095790;28;4853;-68
2021/08/28 00:56:35;;;;;;;;;;;;;;;;;;2095374;28;4007;-69
2021/08/28 00:57:37;;;;;;;;;;;;;;;;;;2095991;28;2712;-69
2021/08/28 00:58:37;;;;;;;;;;;;;;;;;;2096939;28;3955;-67
2021/08/28 01:00:55;;;;;;;;;;;;;;;;;;2082037;27;4863;-67
2021/08/28 01:01:55;;;;;;;;;;;;;;;;;;2082359;28;3898;-70
2021/08/28 01:02:57;;;;;;;;;;;;;;;;;;2085341;28;5112;-67
2021/08/28 01:03:57;;;;;;;;;;;;;;;;;;2086965;28;3956;-69
2021/08/28 01:04:59;;;;;;;;;;;;;;;;;;2086513;28;4110;-67
2021/08/28 01:05:59;;;;;;;;;;;;;;;;;;2081439;28;4070;-67
2021/08/28 01:07:00;;;;;;;;;;;;;;;;;;2087361;28;4873;-68
2021/08/28 01:08:00;;;;;;;;;;;;;;;;;;2088307;28;3287;-68
2021/08/28 01:09:02;;;;;;;;;;;;;;;;;;2082204;28;3983;-68
2021/08/28 01:10:02;;;;;;;;;;;;;;;;;;2076691;28;3997;-68
2021/08/28 01:11:04;;;;;;;;;;;;;;;;;;2078350;28;4023;-67
2021/08/28 01:12:04;;;;;;;;;;;;;;;;;;2078699;28;3992;-69
2021/08/28 01:13:06;;;;;;;;;;;;;;;;;;2087989;28;4096;-67
2021/08/28 01:14:07;;;;;;;;;;;;;;;;;;2084735;28;4129;-68
2021/08/28 01:15:07;;;;;;;;;;;;;;;;;;2083057;28;4322;-67
2021/08/28 01:16:08;;;;;;;;;;;;;;;;;;2083207;28;4172;-68
2021/08/28 01:17:08;;;;;;;;;;;;;;;;;;2086551;28;4218;-69
2021/08/28 01:18:09;;;;;;;;;;;;;;;;;;2084751;28;3949;-69
2021/08/28 01:19:09;;;;;;;;;;;;;;;;;;2087648;28;4976;-69
2021/08/28 01:20:12;;;;;;;;;;;;;;;;;;2082300;28;4495;-67
2021/08/28 01:21:12;;;;;;;;;;;;;;;;;;2081691;28;3513;-69
2021/08/28 01:22:13;;;;;;;;;;;;;;;;;;2088806;28;3151;-70
2021/08/28 01:23:13;;;;;;;;;;;;;;;;;;2088948;28;1169;-69
2021/08/28 01:24:15;;;;;;;;;;;;;;;;;;2083636;28;1149;-69
2021/08/28 01:25:15;;;;;;;;;;;;;;;;;;2089182;28;3907;-68
2021/08/28 01:26:16;;;;;;;;;;;;;;;;;;2080318;28;1583;-68
2021/08/28 01:27:16;;;;;;;;;;;;;;;;;;2084199;28;1427;-68
2021/08/28 01:28:17;;;;;;;;;;;;;;;;;;2087357;28;4135;-69
2021/08/28 01:29:18;;;;;;;;;;;;;;;;;;2085436;28;2935;-69
2021/08/28 01:30:19;;;;;;;;;;;;;;;;;;2084195;28;3919;-68
2021/08/28 01:31:19;;;;;;;;;;;;;;;;;;2080062;28;3769;-68
2021/08/28 01:32:20;;;;;;;;;;;;;;;;;;2083187;28;2309;-68
2021/08/28 01:33:20;;;;;;;;;;;;;;;;;;2085558;28;3135;-69
2021/08/28 01:34:21;;;;;;;;;;;;;;;;;;2088827;28;3621;-69
2021/08/28 01:35:21;;;;;;;;;;;;;;;;;;2084608;28;3111;-68
2021/08/28 01:36:23;;;;;;;;;;;;;;;;;;2087716;28;3504;-69
2021/08/28 01:37:23;;;;;;;;;;;;;;;;;;2085085;28;2460;-68
2021/08/28 01:38:24;;;;;;;;;;;;;;;;;;2084865;28;3610;-69
2021/08/28 01:39:24;;;;;;;;;;;;;;;;;;2080328;28;3879;-68
2021/08/28 01:40:26;;;;;;;;;;;;;;;;;;2083887;28;3953;-67
2021/08/28 01:41:26;;;;;;;;;;;;;;;;;;2080850;28;3511;-68
2021/08/28 01:42:27;;;;;;;;;;;;;;;;;;2088042;28;4666;-69
2021/08/28 01:43:27;;;;;;;;;;;;;;;;;;2086440;28;4213;-68
2021/08/28 01:44:35;;;;;;;;;;;;;;;;;;2082431;28;3479;-67
2021/08/28 01:45:35;;;;;;;;;;;;;;;;;;2084410;28;4040;-68
2021/08/28 01:46:37;;;;;;;;;;;;;;;;;;2082610;28;1213;-68
2021/08/28 01:48:46;;;;;;;;;;;;;;;;;;2086984;28;1743;-73
2021/08/28 01:49:46;;;;;;;;;;;;;;;;;;2089124;28;3436;-72
2021/08/28 01:50:48;;;;;;;;;;;;;;;;;;2075417;28;3960;-73
2021/08/28 01:51:48;;;;;;;;;;;;;;;;;;2084107;28;4176;-72
2021/08/28 01:52:49;;;;;;;;;;;;;;;;;;2087880;28;4929;-73
2021/08/28 01:53:49;;;;;;;;;;;;;;;;;;2082583;28;4213;-73
2021/08/28 01:54:53;;;;;;;;;;;;;;;;;;2085033;28;3217;-73
2021/08/28 01:55:53;;;;;;;;;;;;;;;;;;2083002;28;3151;-73
2021/08/28 01:56:54;;;;;;;;;;;;;;;;;;2081001;28;3266;-73
2021/08/28 01:57:57;;;;;;;;;;;;;;;;;;2073216;28;4259;-73
2021/08/28 01:59:00;;;;;;;;;;;;;;;;;;2085494;28;1278;-73
2021/08/28 02:00:01;;;;;;;;;;;;;;;;;;2082078;28;3893;-70
2021/08/28 02:01:02;;;;;;;;;;;;;;;;;;2081451;28;3998;-71
2021/08/28 02:02:02;;;;;;;;;;;;;;;;;;2087536;28;4027;-71
2021/08/28 02:03:03;;;;;;;;;;;;;;;;;;2087285;28;1098;-71
2021/08/28 02:04:03;;;;;;;;;;;;;;;;;;2086836;28;1038;-71
2021/08/28 02:05:05;;;;;;;;;;;;;;;;;;2086103;28;3672;-71
2021/08/28 02:06:05;;;;;;;;;;;;;;;;;;2085794;28;1310;-70
2021/08/28 02:07:06;;;;;;;;;;;;;;;;;;2090852;28;3474;-70
2021/08/28 02:08:06;;;;;;;;;;;;;;;;;;2088930;28;4260;-70
2021/08/28 02:09:07;;;;;;;;;;;;;;;;;;2076822;28;3771;-70
2021/08/28 02:10:07;;;;;;;;;;;;;;;;;;2085988;28;3619;-71
2021/08/28 02:11:17;;;;;;;;;;;;;;;;;;2075098;28;4148;-70
2021/08/28 02:12:17;;;;;;;;;;;;;;;;;;2071960;28;3929;-71
2021/08/28 02:13:18;;;;;;;;;;;;;;;;;;2084631;28;1779;-71
2021/08/28 02:14:18;;;;;;;;;;;;;;;;;;2083772;28;3705;-70
2021/08/28 02:15:22;;;;;;;;;;;;;;;;;;2077327;28;4001;-70
2021/08/28 02:16:22;;;;;;;;;;;;;;;;;;2073382;28;4391;-71
2021/08/28 02:17:23;;;;;;;;;;;;;;;;;;2082019;28;4376;-71
2021/08/28 02:18:23;;;;;;;;;;;;;;;;;;2085144;28;1590;-71
2021/08/28 02:19:25;;;;;;;;;;;;;;;;;;2074677;28;4643;-71
2021/08/28 02:20:26;;;;;;;;;;;;;;;;;;2072983;28;4814;-70
2021/08/28 02:21:27;;;;;;;;;;;;;;;;;;2062686;28;4314;-71
2021/08/28 02:22:27;;;;;;;;;;;;;;;;;;2082595;28;5525;-71
2021/08/28 02:23:30;;;;;;;;;;;;;;;;;;2076971;28;4531;-70
2021/08/28 02:24:31;;;;;;;;;;;;;;;;;;2070284;28;5376;-71
2021/08/28 02:25:43;;;;;;;;;;;;;;;;;;2079748;28;3748;-70
2021/08/28 02:26:43;;;;;;;;;;;;;;;;;;2081872;28;4333;-70
2021/08/28 02:27:47;;;;;;;;;;;;;;;;;;2081469;28;4251;-70
2021/08/28 02:28:47;;;;;;;;;;;;;;;;;;2079894;28;3939;-70
2021/08/28 02:29:49;;;;;;;;;;;;;;;;;;2079041;28;3926;-70
2021/08/28 02:30:50;;;;;;;;;;;;;;;;;;2068853;28;3441;-71
2021/08/28 02:31:50;;;;;;;;;;;;;;;;;;2082760;28;2139;-70
2021/08/28 02:32:52;;;;;;;;;;;;;;;;;;2081991;28;3849;-71
2021/08/28 02:33:52;;;;;;;;;;;;;;;;;;2075101;28;4628;-70
2021/08/28 02:35:03;;;;;;;;;;;;;;;;;;2074154;28;3433;-71
2021/08/28 02:36:03;;;;;;;;;;;;;;;;;;2078578;28;2470;-71
2021/08/28 02:37:04;;;;;;;;;;;;;;;;;;2081496;28;3926;-71
2021/08/28 02:38:04;;;;;;;;;;;;;;;;;;2083411;28;1445;-71
2021/08/28 02:39:05;;;;;;;;;;;;;;;;;;2066946;28;3272;-71
2021/08/28 02:40:05;;;;;;;;;;;;;;;;;;2077988;28;3573;-71
2021/08/28 02:41:07;;;;;;;;;;;;;;;;;;2067484;28;4131;-70
2021/08/28 02:42:07;;;;;;;;;;;;;;;;;;2072195;28;5140;-71
2021/08/28 02:43:09;;;;;;;;;;;;;;;;;;2081899;28;2997;-71
2021/08/28 02:44:09;;;;;;;;;;;;;;;;;;2077246;28;5036;-71
2021/08/28 02:45:10;;;;;;;;;;;;;;;;;;2074353;28;4068;-70
2021/08/28 02:46:11;;;;;;;;;;;;;;;;;;2079737;28;4681;-71
2021/08/28 02:47:12;;;;;;;;;;;;;;;;;;2078164;28;3952;-71
2021/08/28 02:48:17;;;;;;;;;;;;;;;;;;2081558;28;4003;-70
2021/08/28 02:49:17;;;;;;;;;;;;;;;;;;2074426;28;1313;-70
2021/08/28 02:50:22;;;;;;;;;;;;;;;;;;2061882;28;4141;-70
2021/08/28 02:51:28;;;;;;;;;;;;;;;;;;2063743;28;2700;-70
2021/08/28 02:53:44;;;;;;;;;;;;;;;;;;2079229;28;5018;-72
2021/08/28 02:54:44;;;;;;;;;;;;;;;;;;2075856;28;3996;-72
2021/08/28 02:55:46;;;;;;;;;;;;;;;;;;2077466;28;5164;-72
2021/08/28 02:56:46;;;;;;;;;;;;;;;;;;2077719;28;2517;-71
2021/08/28 02:57:47;;;;;;;;;;;;;;;;;;2071193;28;5053;-71
2021/08/28 02:58:47;;;;;;;;;;;;;;;;;;2077112;28;5143;-72
2021/08/28 02:59:54;;;;;;;;;;;;;;;;;;2076800;28;3389;-72
2021/08/28 03:00:54;;;;;;;;;;;;;;;;;;2076726;28;4870;-71
2021/08/28 03:01:56;;;;;;;;;;;;;;;;;;2072814;28;5120;-72
2021/08/28 03:02:56;;;;;;;;;;;;;;;;;;2075665;28;1756;-72
2021/08/28 03:04:04;;;;;;;;;;;;;;;;;;2072798;28;3909;-72
2021/08/28 03:05:04;;;;;;;;;;;;;;;;;;2079189;28;4000;-72
2021/08/28 03:06:06;;;;;;;;;;;;;;;;;;2075397;28;3567;-71
2021/08/28 03:07:06;;;;;;;;;;;;;;;;;;2079341;28;3730;-71
2021/08/28 03:08:07;;;;;;;;;;;;;;;;;;2079446;28;4055;-72
2021/08/28 03:09:08;;;;;;;;;;;;;;;;;;2074759;28;2242;-72
2021/08/28 03:10:08;;;;;;;;;;;;;;;;;;2075304;28;3744;-72
2021/08/28 03:11:11;;;;;;;;;;;;;;;;;;2067037;28;4217;-72
2021/08/28 03:12:11;;;;;;;;;;;;;;;;;;2080260;28;3490;-72
2021/08/28 03:13:15;;;;;;;;;;;;;;;;;;2068796;28;5185;-71
2021/08/28 03:14:15;;;;;;;;;;;;;;;;;;2080779;28;1026;-72
2021/08/28 03:15:16;;;;;;;;;;;;;;;;;;2073499;28;3569;-71
2021/08/28 03:16:17;;;;;;;;;;;;;;;;;;2074359;28;1336;-71
2021/08/28 03:17:17;;;;;;;;;;;;;;;;;;2082288;28;3989;-72
2021/08/28 03:18:19;;;;;;;;;;;;;;;;;;2081557;28;4600;-71
2021/08/28 03:19:23;;;;;;;;;;;;;;;;;;2071065;28;4945;-72
2021/08/28 03:21:40;;;;;;;;;;;;;;;;;;2073827;28;3705;-71
2021/08/28 03:22:40;;;;;;;;;;;;;;;;;;2077347;28;1197;-72
2021/08/28 03:23:44;;;;;;;;;;;;;;;;;;2071234;28;4523;-71
2021/08/28 03:24:45;;;;;;;;;;;;;;;;;;2070562;28;4127;-72
2021/08/28 03:25:46;;;;;;;;;;;;;;;;;;2075668;28;1061;-71
2021/08/28 03:26:46;;;;;;;;;;;;;;;;;;2075431;28;1547;-72
2021/08/28 03:27:47;;;;;;;;;;;;;;;;;;2075622;28;3993;-72
2021/08/28 03:28:47;;;;;;;;;;;;;;;;;;2077322;28;3971;-72
2021/08/28 03:29:49;;;;;;;;;;;;;;;;;;2077986;28;2736;-71
2021/08/28 03:30:49;;;;;;;;;;;;;;;;;;2076242;28;3356;-71
2021/08/28 03:31:51;;;;;;;;;;;;;;;;;;2073524;28;3426;-71
2021/08/28 03:32:51;;;;;;;;;;;;;;;;;;2068789;28;1370;-72
2021/08/28 03:33:52;;;;;;;;;;;;;;;;;;2080767;28;3880;-72
2021/08/28 03:34:58;;;;;;;;;;;;;;;;;;2073247;28;3507;-71
2021/08/28 03:35:59;;;;;;;;;;;;;;;;;;2075022;28;1179;-72
2021/08/28 03:37:04;;;;;;;;;;;;;;;;;;2079480;28;2105;-71
2021/08/28 03:38:04;;;;;;;;;;;;;;;;;;2077733;28;3472;-72
2021/08/28 03:39:06;;;;;;;;;;;;;;;;;;2075065;28;1397;-72
2021/08/28 03:40:06;;;;;;;;;;;;;;;;;;2078602;28;3632;-71
2021/08/28 03:41:11;;;;;;;;;;;;;;;;;;2064598;28;4050;-71
2021/08/28 03:42:11;;;;;;;;;;;;;;;;;;2070153;28;3992;-72
2021/08/28 03:44:08;;;;;;;;;;;;;;;;;;2113442;27;1764;-70
2021/08/28 03:45:09;;;;;;;;;;;;;;;;;;2110077;27;3091;-71
2021/08/28 03:46:10;;;;;;;;;;;;;;;;;;2119578;27;1035;-71
2021/08/28 03:47:10;;;;;;;;;;;;;;;;;;2122513;27;3372;-70
2021/08/28 03:48:11;;;;;;;;;;;;;;;;;;2116626;27;3451;-70
2021/08/28 03:49:11;;;;;;;;;;;;;;;;;;2113558;27;1133;-71
2021/08/28 03:50:13;;;;;;;;;;;;;;;;;;2100869;27;1872;-70
2021/08/28 03:51:13;;;;;;;;;;;;;;;;;;2105889;27;1551;-71
2021/08/28 03:52:14;;;;;;;;;;;;;;;;;;2113637;27;2645;-70
2021/08/28 03:53:14;;;;;;;;;;;;;;;;;;2107825;27;3026;-70
2021/08/28 03:54:16;;;;;;;;;;;;;;;;;;2113085;27;1039;-70
2021/08/28 03:55:19;;;;;;;;;;;;;;;;;;2113070;27;3982;-71
2021/08/28 03:56:20;;;;;;;;;;;;;;;;;;2106671;27;3706;-70
2021/08/28 03:57:20;;;;;;;;;;;;;;;;;;2109808;27;2336;-70
2021/08/28 03:58:21;;;;;;;;;;;;;;;;;;2111422;27;4701;-71
2021/08/28 03:59:21;;;;;;;;;;;;;;;;;;2106972;27;4614;-70
2021/08/28 04:00:26;;;;;;;;;;;;;;;;;;2106131;27;4915;-70
2021/08/28 04:01:27;;;;;;;;;;;;;;;;;;2106196;27;3385;-71
2021/08/28 04:02:28;;;;;;;;;;;;;;;;;;2101625;27;1159;-71
2021/08/28 04:03:28;;;;;;;;;;;;;;;;;;2105738;27;3431;-71
2021/08/28 04:04:30;;;;;;;;;;;;;;;;;;2106285;27;3105;-70
2021/08/28 04:05:30;;;;;;;;;;;;;;;;;;2105454;27;1931;-71
2021/08/28 04:06:31;;;;;;;;;;;;;;;;;;2102624;27;1139;-71
2021/08/28 04:07:31;;;;;;;;;;;;;;;;;;2114032;27;3948;-71
2021/08/28 04:08:32;;;;;;;;;;;;;;;;;;2110209;27;3439;-70
2021/08/28 04:09:32;;;;;;;;;;;;;;;;;;2101686;27;1393;-71
2021/08/28 04:10:34;;;;;;;;;;;;;;;;;;2106775;27;3039;-70
2021/08/28 04:11:35;;;;;;;;;;;;;;;;;;2094116;27;1258;-71
2021/08/28 04:12:36;;;;;;;;;;;;;;;;;;2107756;27;2570;-70
2021/08/28 04:13:36;;;;;;;;;;;;;;;;;;2113147;27;2661;-71
2021/08/28 04:14:40;;;;;;;;;;;;;;;;;;2112037;27;1064;-70
2021/08/28 04:15:43;;;;;;;;;;;;;;;;;;2109580;27;3955;-69
2021/08/28 04:16:44;;;;;;;;;;;;;;;;;;2109583;27;2084;-71
2021/08/28 04:17:44;;;;;;;;;;;;;;;;;;2110814;27;4021;-70
2021/08/28 04:18:45;;;;;;;;;;;;;;;;;;2106876;27;1440;-70
2021/08/28 04:19:45;;;;;;;;;;;;;;;;;;2106692;27;3441;-70
2021/08/28 04:20:49;;;;;;;;;;;;;;;;;;2103769;27;3894;-71
2021/08/28 04:21:49;;;;;;;;;;;;;;;;;;2110748;27;1029;-71
2021/08/28 04:22:50;;;;;;;;;;;;;;;;;;2114812;27;3129;-71
2021/08/28 04:23:59;;;;;;;;;;;;;;;;;;2108360;27;3872;-70
2021/08/28 04:24:59;;;;;;;;;;;;;;;;;;2094374;27;3687;-70
2021/08/28 04:26:00;;;;;;;;;;;;;;;;;;2094527;27;3398;-70
2021/08/28 04:27:03;;;;;;;;;;;;;;;;;;2113331;27;3650;-71
2021/08/28 04:28:04;;;;;;;;;;;;;;;;;;2112637;27;4020;-71
2021/08/28 04:29:04;;;;;;;;;;;;;;;;;;2109020;27;3508;-70
2021/08/28 04:30:05;;;;;;;;;;;;;;;;;;2105366;27;3845;-70
2021/08/28 04:31:08;;;;;;;;;;;;;;;;;;2106382;27;3527;-70
2021/08/28 04:32:09;;;;;;;;;;;;;;;;;;2107951;27;4063;-71
2021/08/28 04:33:09;;;;;;;;;;;;;;;;;;2112563;27;1808;-70
2021/08/28 04:34:10;;;;;;;;;;;;;;;;;;2112169;27;1062;-71
2021/08/28 04:35:11;;;;;;;;;;;;;;;;;;2106962;27;3140;-70
2021/08/28 04:36:12;;;;;;;;;;;;;;;;;;2103743;27;3825;-70
2021/08/28 04:37:16;;;;;;;;;;;;;;;;;;2107358;27;1067;-70
2021/08/28 04:38:20;;;;;;;;;;;;;;;;;;2098845;27;3846;-70
2021/08/28 04:39:20;;;;;;;;;;;;;;;;;;2096962;27;2644;-70
2021/08/28 04:41:35;;;;;;;;;;;;;;;;;;2094366;27;1586;-71
2021/08/28 04:42:35;;;;;;;;;;;;;;;;;;2096697;28;1099;-71
2021/08/28 04:43:39;;;;;;;;;;;;;;;;;;2092525;28;1275;-71
2021/08/28 04:44:45;;;;;;;;;;;;;;;;;;2095929;28;1224;-71
2021/08/28 04:45:49;;;;;;;;;;;;;;;;;;2089987;28;1201;-70
2021/08/28 04:46:49;;;;;;;;;;;;;;;;;;2092081;28;3656;-71
2021/08/28 04:47:50;;;;;;;;;;;;;;;;;;2096547;28;3869;-70
2021/08/28 04:48:50;;;;;;;;;;;;;;;;;;2095703;28;1145;-71
2021/08/28 04:49:51;;;;;;;;;;;;;;;;;;2096223;28;1591;-71
2021/08/28 04:50:57;;;;;;;;;;;;;;;;;;2093376;28;4010;-70
2021/08/28 04:51:59;;;;;;;;;;;;;;;;;;2086366;28;2247;-71
2021/08/28 04:52:59;;;;;;;;;;;;;;;;;;2094154;28;1118;-70
2021/08/28 04:55:15;;;;;;;;;;;;;;;;;;2094868;28;3748;-71
2021/08/28 04:56:15;;;;;;;;;;;;;;;;;;2092142;28;3615;-70
2021/08/28 04:57:16;;;;;;;;;;;;;;;;;;2097108;28;3808;-70
2021/08/28 04:58:16;;;;;;;;;;;;;;;;;;2095814;28;3780;-70
2021/08/28 04:59:18;;;;;;;;;;;;;;;;;;2093393;28;1157;-70
2021/08/28 05:00:18;;;;;;;;;;;;;;;;;;2094689;28;3863;-70
2021/08/28 05:01:19;;;;;;;;;;;;;;;;;;2090060;28;2769;-71
2021/08/28 05:02:19;;;;;;;;;;;;;;;;;;2097428;28;1192;-71
2021/08/28 05:03:25;;;;;;;;;;;;;;;;;;2093237;28;1647;-71
2021/08/28 05:04:25;;;;;;;;;;;;;;;;;;2097201;28;3348;-71
2021/08/28 05:05:26;;;;;;;;;;;;;;;;;;2093364;28;2487;-71
2021/08/28 05:06:26;;;;;;;;;;;;;;;;;;2096226;28;1134;-71
2021/08/28 05:07:27;;;;;;;;;;;;;;;;;;2096840;28;3696;-71
2021/08/28 05:08:27;;;;;;;;;;;;;;;;;;2095604;28;3654;-71
2021/08/28 05:09:28;;;;;;;;;;;;;;;;;;2095511;28;2706;-70
2021/08/28 05:10:31;;;;;;;;;;;;;;;;;;2093929;28;3309;-71
2021/08/28 05:11:31;;;;;;;;;;;;;;;;;;2094083;28;3567;-71
2021/08/28 05:12:32;;;;;;;;;;;;;;;;;;2095951;28;3275;-70
2021/08/28 05:13:32;;;;;;;;;;;;;;;;;;2093980;28;3114;-70
2021/08/28 05:14:37;;;;;;;;;;;;;;;;;;2094845;28;1176;-70
2021/08/28 05:15:37;;;;;;;;;;;;;;;;;;2095187;28;1189;-70
2021/08/28 05:16:40;;;;;;;;;;;;;;;;;;2095542;28;3683;-70
2021/08/28 05:17:40;;;;;;;;;;;;;;;;;;2096071;28;3799;-71
2021/08/28 05:18:41;;;;;;;;;;;;;;;;;;2094149;28;4418;-71
2021/08/28 05:19:42;;;;;;;;;;;;;;;;;;2091785;28;5108;-70
2021/08/28 05:20:46;;;;;;;;;;;;;;;;;;2094986;28;3728;-70
2021/08/28 05:21:46;;;;;;;;;;;;;;;;;;2096286;28;3639;-71
2021/08/28 05:22:47;;;;;;;;;;;;;;;;;;2097400;28;1088;-70
2021/08/28 05:23:47;;;;;;;;;;;;;;;;;;2094479;28;1133;-71
2021/08/28 05:24:48;;;;;;;;;;;;;;;;;;2096267;28;1738;-71
2021/08/28 05:25:48;;;;;;;;;;;;;;;;;;2095499;28;3303;-70
2021/08/28 05:26:50;;;;;;;;;;;;;;;;;;2096865;28;3798;-71
2021/08/28 05:27:50;;;;;;;;;;;;;;;;;;2095566;28;3725;-70
2021/08/28 05:28:51;;;;;;;;;;;;;;;;;;2096432;28;1077;-71
2021/08/28 05:29:56;;;;;;;;;;;;;;;;;;2093439;28;1448;-71
2021/08/28 05:30:56;;;;;;;;;;;;;;;;;;2093729;27;3445;-70
2021/08/28 05:32:06;;;;;;;;;;;;;;;;;;2092026;28;3458;-70
2021/08/28 05:33:07;;;;;;;;;;;;;;;;;;2094438;28;4025;-70
2021/08/28 05:34:11;;;;;;;;;;;;;;;;;;2091060;28;1553;-70
2021/08/28 05:35:11;;;;;;;;;;;;;;;;;;2090681;28;3868;-70
2021/08/28 05:36:12;;;;;;;;;;;;;;;;;;2095116;28;2685;-71
2021/08/28 05:37:12;;;;;;;;;;;;;;;;;;2096961;28;1891;-70
2021/08/28 05:38:13;;;;;;;;;;;;;;;;;;2095515;28;3293;-70
2021/08/28 05:39:16;;;;;;;;;;;;;;;;;;2095737;28;1216;-70
2021/08/28 05:40:20;;;;;;;;;;;;;;;;;;2094620;28;3603;-71
2021/08/28 05:41:20;;;;;;;;;;;;;;;;;;2093091;28;2001;-71
2021/08/28 05:42:21;;;;;;;;;;;;;;;;;;2096913;28;4081;-70
2021/08/28 05:44:49;;;;;;;;;;;;;;;;;;2085108;28;1296;-70
2021/08/28 05:45:49;;;;;;;;;;;;;;;;;;2080184;28;3392;-70
2021/08/28 05:46:50;;;;;;;;;;;;;;;;;;2079848;28;4177;-70
2021/08/28 05:47:50;;;;;;;;;;;;;;;;;;2079281;28;4177;-71
2021/08/28 05:48:51;;;;;;;;;;;;;;;;;;2081291;28;1496;-71
2021/08/28 05:49:51;;;;;;;;;;;;;;;;;;2080408;28;2403;-70
2021/08/28 05:51:02;;;;;;;;;;;;;;;;;;2073673;28;4089;-70
2021/08/28 05:52:05;;;;;;;;;;;;;;;;;;2081182;28;3585;-71
2021/08/28 05:53:05;;;;;;;;;;;;;;;;;;2075839;28;1185;-71
2021/08/28 05:54:06;;;;;;;;;;;;;;;;;;2078572;28;1518;-71
2021/08/28 05:55:12;;;;;;;;;;;;;;;;;;2079993;28;3885;-71
2021/08/28 05:56:13;;;;;;;;;;;;;;;;;;2076457;28;4905;-71
2021/08/28 05:57:15;;;;;;;;;;;;;;;;;;2079286;28;4194;-71
2021/08/28 05:58:16;;;;;;;;;;;;;;;;;;2080816;28;4022;-71
2021/08/28 05:59:16;;;;;;;;;;;;;;;;;;2079191;28;1077;-70
2021/08/28 06:00:17;;;;;;;;;;;;;;;;;;2078916;28;4694;-71
2021/08/28 06:01:22;;;;;;;;;;;;;;;;;;2074241;28;2271;-70
2021/08/28 06:02:23;;;;;;;;;;;;;;;;;;2081025;28;4269;-71
2021/08/28 06:03:23;;;;;;;;;;;;;;;;;;2076226;28;1483;-70
2021/08/28 06:04:25;;;;;;;;;;;;;;;;;;2079691;28;3364;-71
2021/08/28 06:05:25;;;;;;;;;;;;;;;;;;2073862;28;2081;-70
2021/08/28 06:06:26;;;;;;;;;;;;;;;;;;2080156;28;1679;-71
2021/08/28 06:07:26;;;;;;;;;;;;;;;;;;2078217;28;3959;-71
2021/08/28 06:08:27;;;;;;;;;;;;;;;;;;2080637;28;1362;-70
2021/08/28 06:09:27;;;;;;;;;;;;;;;;;;2072366;28;1418;-71
2021/08/28 06:11:46;;;;;;;;;;;;;;;;;;2077835;28;3953;-71
2021/08/28 06:12:46;;;;;;;;;;;;;;;;;;2077166;28;3021;-70
2021/08/28 06:13:47;;;;;;;;;;;;;;;;;;2078872;28;3728;-70
2021/08/28 06:14:53;;;;;;;;;;;;;;;;;;2079324;28;1077;-71
2021/08/28 06:15:54;;;;;;;;;;;;;;;;;;2079415;28;1084;-71
2021/08/28 06:16:58;;;;;;;;;;;;;;;;;;2080050;28;1681;-70
2021/08/28 06:17:59;;;;;;;;;;;;;;;;;;2079366;28;3830;-70
2021/08/28 06:18:59;;;;;;;;;;;;;;;;;;2080683;28;3631;-70
2021/08/28 06:21:16;;;;;;;;;;;;;;;;;;2077554;28;4244;-71
2021/08/28 06:22:16;;;;;;;;;;;;;;;;;;2079631;28;3762;-71
2021/08/28 06:23:18;;;;;;;;;;;;;;;;;;2079755;28;1017;-71
2021/08/28 06:24:18;;;;;;;;;;;;;;;;;;2078112;28;1938;-71
2021/08/28 06:26:36;;;;;;;;;;;;;;;;;;2113909;27;3866;-71
2021/08/28 06:27:36;;;;;;;;;;;;;;;;;;2114310;27;1835;-70
2021/08/28 06:28:37;;;;;;;;;;;;;;;;;;2113870;27;1032;-71
2021/08/28 06:29:42;;;;;;;;;;;;;;;;;;2103920;27;3075;-70
2021/08/28 06:30:45;;;;;;;;;;;;;;;;;;2111022;27;3497;-70
2021/08/28 06:31:46;;;;;;;;;;;;;;;;;;2107141;27;3251;-71
2021/08/28 06:32:47;;;;;;;;;;;;;;;;;;2112914;27;1146;-70
2021/08/28 06:33:48;;;;;;;;;;;;;;;;;;2113234;27;3794;-71
2021/08/28 06:34:48;;;;;;;;;;;;;;;;;;2114462;27;3791;-71
2021/08/28 06:35:51;;;;;;;;;;;;;;;;;;2107028;27;3995;-71
2021/08/28 06:36:51;;;;;;;;;;;;;;;;;;2106409;27;3205;-71
2021/08/28 06:37:52;;;;;;;;;;;;;;;;;;2106216;27;3939;-70
2021/08/28 06:38:55;;;;;;;;;;;;;;;;;;2112414;27;3942;-70
2021/08/28 06:39:56;;;;;;;;;;;;;;;;;;2109310;27;3961;-70
2021/08/28 06:40:59;;;;;;;;;;;;;;;;;;2103858;27;4061;-70
2021/08/28 06:42:01;;;;;;;;;;;;;;;;;;2109893;27;1106;-70
2021/08/28 06:43:06;;;;;;;;;;;;;;;;;;2113745;27;4074;-70
2021/08/28 06:44:08;;;;;;;;;;;;;;;;;;2112662;27;1414;-71
2021/08/28 06:45:10;;;;;;;;;;;;;;;;;;2100184;27;2143;-70
2021/08/28 06:46:10;;;;;;;;;;;;;;;;;;2113456;27;2771;-71
2021/08/28 06:47:12;;;;;;;;;;;;;;;;;;2108309;27;4261;-71
2021/08/28 06:48:14;;;;;;;;;;;;;;;;;;2110835;27;2623;-70
2021/08/28 06:49:15;;;;;;;;;;;;;;;;;;2103923;27;1674;-71
2021/08/28 06:50:15;;;;;;;;;;;;;;;;;;2109392;27;3995;-70
2021/08/28 06:51:16;;;;;;;;;;;;;;;;;;2116070;27;1207;-71
2021/08/28 06:52:16;;;;;;;;;;;;;;;;;;2122340;27;3937;-71
2021/08/28 06:53:19;;;;;;;;;;;;;;;;;;2117041;27;1067;-71
2021/08/28 06:54:19;;;;;;;;;;;;;;;;;;2121349;27;2976;-70
2021/08/28 06:55:21;;;;;;;;;;;;;;;;;;2115368;27;3328;-70
2021/08/28 06:56:21;;;;;;;;;;;;;;;;;;2118373;27;3931;-71
2021/08/28 06:57:22;;;;;;;;;;;;;;;;;;2122842;27;4070;-71
2021/08/28 06:58:22;;;;;;;;;;;;;;;;;;2118105;27;2887;-71
2021/08/28 07:00:39;;;;;;;;;;;;;;;;;;2077807;28;4496;-71
2021/08/28 07:01:40;;;;;;;;;;;;;;;;;;2067152;28;3473;-70
2021/08/28 07:02:41;;;;;;;;;;;;;;;;;;2080233;28;3228;-71
2021/08/28 07:03:42;;;;;;;;;;;;;;;;;;2071018;28;4086;-70
2021/08/28 07:04:42;;;;;;;;;;;;;;;;;;2080044;28;3799;-71
2021/08/28 07:05:43;;;;;;;;;;;;;;;;;;2071567;28;4158;-70
2021/08/28 07:06:43;;;;;;;;;;;;;;;;;;2077852;28;4094;-71
2021/08/28 07:07:44;;;;;;;;;;;;;;;;;;2077515;28;4059;-70
2021/08/28 07:08:44;;;;;;;;;;;;;;;;;;2078730;28;4063;-70
2021/08/28 07:09:45;;;;;;;;;;;;;;;;;;2070722;28;2298;-71
2021/08/28 07:10:46;;;;;;;;;;;;;;;;;;2075467;28;3445;-70
2021/08/28 07:11:47;;;;;;;;;;;;;;;;;;2073067;28;4144;-71
2021/08/28 07:12:47;;;;;;;;;;;;;;;;;;2075555;28;3693;-70
2021/08/28 07:13:49;;;;;;;;;;;;;;;;;;2076663;28;3132;-70
2021/08/28 07:14:49;;;;;;;;;;;;;;;;;;2072450;28;3984;-70
2021/08/28 07:15:50;;;;;;;;;;;;;;;;;;2078076;28;3919;-70
2021/08/28 07:16:50;;;;;;;;;;;;;;;;;;2077993;28;1160;-71
2021/08/28 07:17:51;;;;;;;;;;;;;;;;;;2078678;28;1989;-71
2021/08/28 07:18:52;;;;;;;;;;;;;;;;;;2075057;28;3933;-71
2021/08/28 07:20:03;;;;;;;;;;;;;;;;;;2075455;28;4233;-70
2021/08/28 07:21:09;;;;;;;;;;;;;;;;;;2071879;28;4818;-70
2021/08/28 07:22:10;;;;;;;;;;;;;;;;;;2074225;28;4524;-70